createdAt,value
2018-04-11T00:01:21.272Z,67.50
2018-04-11T00:03:49.496Z,67.80
2018-04-11T00:06:16.948Z,67.80
2018-04-11T00:08:44.413Z,67.70
2018-04-11T00:11:11.874Z,67.90
2018-04-11T00:13:40.111Z,68.10
2018-04-11T00:16:07.706Z,68.00
2018-04-11T00:18:35.191Z,68.00
2018-04-11T00:21:03.405Z,67.60
2018-04-11T00:23:30.892Z,67.60
2018-04-11T00:25:58.380Z,67.10
2018-04-11T00:28:25.844Z,67.20
2018-04-11T00:30:53.284Z,67.30
2018-04-11T00:33:20.761Z,67.50
2018-04-11T00:35:48.210Z,67.30
2018-04-11T00:38:15.678Z,67.10
2018-04-11T00:40:43.136Z,67.10
2018-04-11T00:43:11.364Z,67.30
2018-04-11T00:45:38.822Z,67.30
2018-04-11T00:48:06.296Z,67.80
2018-04-11T00:50:33.751Z,67.90
2018-04-11T00:53:13.172Z,67.50
2018-04-11T00:55:40.612Z,66.90
2018-04-11T00:58:08.080Z,66.60
2018-04-11T01:00:35.532Z,67.10
2018-04-11T01:03:03.081Z,67.20
2018-04-11T01:05:30.545Z,67.90
2018-04-11T01:07:57.997Z,68.00
2018-04-11T01:10:25.460Z,67.90
2018-04-11T01:12:53.740Z,69.00
2018-04-11T01:15:21.153Z,69.00
2018-04-11T01:17:48.605Z,69.60
2018-04-11T01:20:16.082Z,69.70
2018-04-11T01:22:43.524Z,69.50
2018-04-11T01:25:11.749Z,68.70
2018-04-11T01:27:39.200Z,68.60
2018-04-11T01:30:07.050Z,68.30
2018-04-11T01:32:35.274Z,68.50
2018-04-11T01:35:02.754Z,68.40
2018-04-11T01:37:30.218Z,68.90
2018-04-11T01:39:57.685Z,69.50
2018-04-11T01:42:25.137Z,70.10
2018-04-11T01:44:52.610Z,70.00
2018-04-11T01:47:20.074Z,70.20
2018-04-11T01:49:47.547Z,70.60
2018-04-11T01:52:15.024Z,70.10
2018-04-11T01:54:42.472Z,69.30
2018-04-11T01:57:09.954Z,68.70
2018-04-11T01:59:37.400Z,68.80
2018-04-11T02:02:05.624Z,67.70
2018-04-11T02:04:33.093Z,67.70
2018-04-11T02:07:00.646Z,67.50
2018-04-11T02:09:28.864Z,68.00
2018-04-11T02:11:56.368Z,68.00
2018-04-11T02:14:23.826Z,68.40
2018-04-11T02:16:51.306Z,68.60
2018-04-11T02:19:18.889Z,68.60
2018-04-11T02:21:47.133Z,67.90
2018-04-11T02:24:14.588Z,67.90
2018-04-11T02:26:42.056Z,68.00
2018-04-11T02:29:09.576Z,67.80
2018-04-11T02:31:37.046Z,68.10
2018-04-11T02:34:04.493Z,68.10
2018-04-11T02:36:31.964Z,67.80
2018-04-11T02:38:59.420Z,68.20
2018-04-11T02:41:26.890Z,68.20
2018-04-11T02:43:54.374Z,68.30
2018-04-11T02:46:21.824Z,68.20
2018-04-11T02:48:49.296Z,68.20
2018-04-11T02:51:16.746Z,69.00
2018-04-11T02:53:44.213Z,68.20
2018-04-11T02:56:11.668Z,68.40
2018-04-11T02:58:39.129Z,68.50
2018-04-11T03:01:06.604Z,68.90
2018-04-11T03:03:34.068Z,69.00
2018-04-11T03:06:01.517Z,69.40
2018-04-11T03:08:29.764Z,69.20
2018-04-11T03:10:57.234Z,69.10
2018-04-11T03:13:24.711Z,69.00
2018-04-11T03:15:52.172Z,69.00
2018-04-11T03:18:19.632Z,68.90
2018-04-11T03:20:47.090Z,69.40
2018-04-11T03:23:14.541Z,69.50
2018-04-11T03:25:42.017Z,69.40
2018-04-11T03:28:09.469Z,69.30
2018-04-11T03:30:36.945Z,69.10
2018-04-11T03:33:04.442Z,69.00
2018-04-11T03:35:32.654Z,69.40
2018-04-11T03:38:00.113Z,69.40
2018-04-11T03:40:27.581Z,69.70
2018-04-11T03:42:55.034Z,69.70
2018-04-11T03:45:22.502Z,71.20
2018-04-11T03:47:49.956Z,71.20
2018-04-11T03:50:17.417Z,71.00
2018-04-11T03:52:44.877Z,69.80
2018-04-11T03:55:13.106Z,70.40
2018-04-11T03:57:40.584Z,70.40
2018-04-11T04:00:08.049Z,70.30
2018-04-11T04:02:35.499Z,70.60
2018-04-11T04:05:02.956Z,70.70
2018-04-11T04:07:30.407Z,71.10
2018-04-11T04:09:57.859Z,72.10
2018-04-11T04:12:26.072Z,73.20
2018-04-11T04:15:05.537Z,73.10
2018-04-11T04:17:44.905Z,73.40
2018-04-11T04:20:27.199Z,73.10
2018-04-11T04:22:54.661Z,73.20
2018-04-11T04:25:22.116Z,72.70
2018-04-11T04:27:49.563Z,72.40
2018-04-11T04:30:17.790Z,72.10
2018-04-11T04:32:45.231Z,72.50
2018-04-11T04:35:13.467Z,73.30
2018-04-11T04:37:40.913Z,73.30
2018-04-11T04:40:08.369Z,73.50
2018-04-11T04:42:35.836Z,73.20
2018-04-11T04:45:03.284Z,73.30
2018-04-11T04:47:31.528Z,73.60
2018-04-11T04:49:58.981Z,73.40
2018-04-11T04:52:26.441Z,73.60
2018-04-11T04:54:53.892Z,73.90
2018-04-11T04:57:21.356Z,74.30
2018-04-11T04:59:49.580Z,74.10
2018-04-11T05:02:17.027Z,74.00
2018-04-11T05:04:44.478Z,74.30
2018-04-11T05:07:12.712Z,74.40
2018-04-11T05:09:40.173Z,74.30
2018-04-11T05:12:07.636Z,74.50
2018-04-11T05:14:35.090Z,74.60
2018-04-11T05:17:02.548Z,74.60
2018-04-11T05:19:29.991Z,74.60
2018-04-11T05:21:57.453Z,74.40
2018-04-11T05:24:24.900Z,74.40
2018-04-11T05:26:52.369Z,74.20
2018-04-11T05:29:19.815Z,74.30
2018-04-11T05:31:47.277Z,73.80
2018-04-11T05:34:14.737Z,73.50
2018-04-11T05:36:42.188Z,73.30
2018-04-11T05:39:10.421Z,72.70
2018-04-11T05:41:37.873Z,72.70
2018-04-11T05:44:05.341Z,72.60
2018-04-11T05:46:32.796Z,72.70
2018-04-11T05:49:00.260Z,72.80
2018-04-11T05:51:27.717Z,72.80
2018-04-11T05:53:55.980Z,73.30
2018-04-11T05:56:24.941Z,74.00
2018-04-11T05:58:52.395Z,74.00
2018-04-11T06:01:19.853Z,74.30
2018-04-11T06:03:48.085Z,74.30
2018-04-11T06:06:15.540Z,74.30
2018-04-11T06:08:43.009Z,74.20
2018-04-11T06:11:10.457Z,74.60
2018-04-11T06:13:38.117Z,74.90
2018-04-11T06:16:06.330Z,76.10
2018-04-11T06:18:33.864Z,76.10
2018-04-11T06:21:02.055Z,77.40
2018-04-11T06:23:30.273Z,77.10
2018-04-11T06:25:57.729Z,77.00
2018-04-11T06:28:25.197Z,76.20
2018-04-11T06:30:52.660Z,75.50
2018-04-11T06:33:20.880Z,76.40
2018-04-11T06:35:48.339Z,76.30
2018-04-11T06:38:15.793Z,76.70
2018-04-11T06:40:43.295Z,76.50
2018-04-11T06:43:10.778Z,75.40
2018-04-11T06:45:38.249Z,73.30
2018-04-11T06:48:05.717Z,72.60
2018-04-11T06:50:33.189Z,72.80
2018-04-11T06:53:00.649Z,72.20
2018-04-11T06:55:28.132Z,72.40
2018-04-11T06:57:55.574Z,72.80
2018-04-11T07:00:23.040Z,72.20
2018-04-11T07:02:50.507Z,72.50
2018-04-11T07:05:17.971Z,72.40
2018-04-11T07:07:45.432Z,73.70
2018-04-11T07:10:12.877Z,72.10
2018-04-11T07:12:41.123Z,72.80
2018-04-11T07:15:08.580Z,72.80
2018-04-11T07:17:36.040Z,72.70
2018-04-11T07:20:03.500Z,71.20
2018-04-11T07:22:30.969Z,70.70
2018-04-11T07:24:58.426Z,70.50
2018-04-11T07:27:25.901Z,69.90
2018-04-11T07:29:53.352Z,70.70
2018-04-11T07:32:20.816Z,70.30
2018-04-11T07:34:49.045Z,68.90
2018-04-11T07:37:16.512Z,68.90
2018-04-11T07:39:43.960Z,68.50
2018-04-11T07:42:11.438Z,66.30
2018-04-11T07:44:38.898Z,65.00
2018-04-11T07:47:06.356Z,63.80
2018-04-11T07:49:33.821Z,62.90
2018-04-11T07:52:02.061Z,61.80
2018-04-11T07:54:29.549Z,61.80
2018-04-11T07:56:56.997Z,60.50
2018-04-11T07:59:24.447Z,61.40
2018-04-11T08:01:51.904Z,60.60
2018-04-11T08:04:19.367Z,60.20
2018-04-11T08:06:46.820Z,60.90
2018-04-11T08:09:15.056Z,61.80
2018-04-11T08:11:42.504Z,61.60
2018-04-11T08:14:09.981Z,60.60
2018-04-11T08:16:37.446Z,60.40
2018-04-11T08:19:04.908Z,58.60
2018-04-11T08:21:32.359Z,57.60
2018-04-11T08:23:59.334Z,57.20
2018-04-11T08:26:26.804Z,57.50
2018-04-11T08:28:54.264Z,57.50
2018-04-11T08:31:21.718Z,57.50
2018-04-11T08:33:49.945Z,57.00
2018-04-11T08:36:17.405Z,56.40
2018-04-11T08:38:44.874Z,56.10
2018-04-11T08:41:12.311Z,56.70
2018-04-11T08:43:40.545Z,56.20
2018-04-11T08:46:08.000Z,56.20
2018-04-11T08:48:35.469Z,55.30
2018-04-11T08:51:02.925Z,55.10
2018-04-11T08:53:30.382Z,54.90
2018-04-11T08:55:57.839Z,55.20
2018-04-11T08:58:26.061Z,54.00
2018-04-11T09:00:53.529Z,53.90
2018-04-11T09:03:20.989Z,55.50
2018-04-11T09:05:48.447Z,54.00
2018-04-11T09:08:15.904Z,53.90
2018-04-11T09:10:44.129Z,52.90
2018-04-11T09:13:11.573Z,52.90
2018-04-11T09:15:39.047Z,51.90
2018-04-11T09:18:06.489Z,52.20
2018-04-11T09:20:34.709Z,51.50
2018-04-11T09:23:02.161Z,51.40
2018-04-11T09:25:29.624Z,51.70
2018-04-11T09:27:57.829Z,52.30
2018-04-11T09:30:25.301Z,52.20
2018-04-11T09:32:52.755Z,50.30
2018-04-11T09:35:20.199Z,52.60
2018-04-11T09:37:48.421Z,52.90
2018-04-11T09:40:15.873Z,52.90
2018-04-11T09:42:44.092Z,51.90
2018-04-11T09:45:11.531Z,51.90
2018-04-11T09:47:38.997Z,50.90
2018-04-11T09:50:07.217Z,49.70
2018-04-11T09:52:34.677Z,49.60
2018-04-11T09:55:02.125Z,48.60
2018-04-11T09:57:29.584Z,49.20
2018-04-11T09:59:57.797Z,48.60
2018-04-11T10:02:25.251Z,48.60
2018-04-11T10:04:52.691Z,48.20
2018-04-11T10:07:20.921Z,46.60
2018-04-11T10:09:48.359Z,46.40
2018-04-11T10:12:16.593Z,44.80
2018-04-11T10:14:44.036Z,44.80
2018-04-11T10:17:11.491Z,44.80
2018-04-11T10:19:39.704Z,46.10
2018-04-11T10:22:07.169Z,46.10
2018-04-11T10:24:34.616Z,46.10
2018-04-11T10:27:02.071Z,46.90
2018-04-11T10:29:30.274Z,46.90
2018-04-11T10:31:57.749Z,46.80
2018-04-11T10:34:25.194Z,47.40
2018-04-11T10:36:53.412Z,47.20
2018-04-11T10:39:20.864Z,47.20
2018-04-11T10:41:48.335Z,45.90
2018-04-11T10:44:16.537Z,48.10
2018-04-11T10:46:43.987Z,48.00
2018-04-11T10:49:11.428Z,49.10
2018-04-11T10:51:38.888Z,48.60
2018-04-11T10:54:06.337Z,48.10
2018-04-11T10:56:33.833Z,48.00
2018-04-11T10:59:01.281Z,48.70
2018-04-11T11:01:28.741Z,46.90
2018-04-11T11:03:56.185Z,46.80
2018-04-11T11:06:23.649Z,48.00
2018-04-11T11:08:51.097Z,47.20
2018-04-11T11:11:19.319Z,47.70
2018-04-11T11:13:46.766Z,47.70
2018-04-11T11:16:14.225Z,46.00
2018-04-11T11:18:42.428Z,45.60
2018-04-11T11:21:09.884Z,45.60
2018-04-11T11:23:38.101Z,46.20
2018-04-11T11:26:05.545Z,46.30
2018-04-11T11:28:33.016Z,45.00
2018-04-11T11:31:00.464Z,44.60
2018-04-11T11:33:27.918Z,45.00
2018-04-11T11:35:55.378Z,44.70
2018-04-11T11:38:22.834Z,42.20
2018-04-11T11:40:50.286Z,43.90
2018-04-11T11:43:17.737Z,43.70
2018-04-11T11:45:45.193Z,44.10
2018-04-11T11:48:13.409Z,40.80
2018-04-11T11:50:40.857Z,40.80
2018-04-11T11:53:08.312Z,40.70
2018-04-11T11:55:36.515Z,40.60
2018-04-11T11:58:03.976Z,40.60
2018-04-11T12:00:31.425Z,37.80
2018-04-11T12:02:59.649Z,39.60
2018-04-11T12:05:27.096Z,39.60
2018-04-11T12:07:55.309Z,40.00
2018-04-11T12:10:22.751Z,39.90
2018-04-11T12:12:50.215Z,38.40
2018-04-11T12:15:18.415Z,37.90
2018-04-11T12:17:45.872Z,37.90
2018-04-11T12:20:13.321Z,39.30
2018-04-11T12:22:40.777Z,38.60
2018-04-11T12:25:08.254Z,39.20
2018-04-11T12:27:35.671Z,38.00
2018-04-11T12:30:03.111Z,38.20
2018-04-11T12:32:31.337Z,40.20
2018-04-11T12:34:58.784Z,40.10
2018-04-11T12:37:26.256Z,38.60
2018-04-11T12:39:53.697Z,39.30
2018-04-11T12:42:21.925Z,38.70
2018-04-11T12:44:49.374Z,38.60
2018-04-11T12:47:17.037Z,38.00
2018-04-11T12:49:44.474Z,38.00
2018-04-11T12:52:11.933Z,37.30
2018-04-11T12:54:39.381Z,38.90
2018-04-11T12:57:06.929Z,38.60
2018-04-11T12:59:34.377Z,38.20
2018-04-11T13:02:02.604Z,37.70
2018-04-11T13:04:30.052Z,37.60
2018-04-11T13:06:57.517Z,37.00
2018-04-11T13:09:25.016Z,37.30
2018-04-11T13:11:52.469Z,37.80
2018-04-11T13:14:19.916Z,37.80
2018-04-11T13:16:47.373Z,37.70
2018-04-11T13:19:15.581Z,38.40
2018-04-11T13:21:43.038Z,38.40
2018-04-11T13:24:11.258Z,39.40
2018-04-11T13:26:38.712Z,39.30
2018-04-11T13:29:06.180Z,37.70
2018-04-11T13:31:33.634Z,37.70
2018-04-11T13:34:01.851Z,38.20
2018-04-11T13:36:29.301Z,38.20
2018-04-11T13:38:56.770Z,38.80
2018-04-11T13:41:24.209Z,38.90
2018-04-11T13:43:52.428Z,38.50
2018-04-11T13:46:19.875Z,38.40
2018-04-11T13:48:48.096Z,38.90
2018-04-11T13:51:15.540Z,38.90
2018-04-11T13:53:42.999Z,40.10
2018-04-11T13:56:11.216Z,38.90
2018-04-11T13:58:38.685Z,38.80
2018-04-11T14:01:06.123Z,39.40
2018-04-11T14:03:34.351Z,40.00
2018-04-11T14:06:01.812Z,40.00
2018-04-11T14:08:29.277Z,39.90
2018-04-11T14:10:56.716Z,39.20
2018-04-11T14:13:24.942Z,40.40
2018-04-11T14:15:52.388Z,40.40
2018-04-11T14:18:19.853Z,39.20
2018-04-11T14:20:47.335Z,40.90
2018-04-11T14:23:14.767Z,40.80
2018-04-11T14:25:42.989Z,41.30
2018-04-11T14:28:10.440Z,41.30
2018-04-11T14:30:37.889Z,40.20
2018-04-11T14:33:06.113Z,41.80
2018-04-11T14:35:33.557Z,41.80
2018-04-11T14:38:01.789Z,41.00
2018-04-11T14:40:29.237Z,41.00
2018-04-11T14:42:56.695Z,42.40
2018-04-11T14:45:24.140Z,42.10
2018-04-11T14:47:52.356Z,42.00
2018-04-11T14:50:19.808Z,42.00
2018-04-11T14:52:48.029Z,41.90
2018-04-11T14:55:15.483Z,41.80
2018-04-11T14:57:42.937Z,41.40
2018-04-11T15:00:10.432Z,41.90
2018-04-11T15:02:38.605Z,43.10
2018-04-11T15:05:06.062Z,43.10
2018-04-11T15:07:34.273Z,42.70
2018-04-11T15:10:01.721Z,42.70
2018-04-11T15:12:29.180Z,43.60
2018-04-11T15:14:57.398Z,43.80
2018-04-11T15:17:24.861Z,43.90
2018-04-11T15:19:52.304Z,43.20
2018-04-11T15:22:20.525Z,43.50
2018-04-11T15:24:47.981Z,43.40
2018-04-11T15:27:15.459Z,43.90
2018-04-11T15:29:42.925Z,44.00
2018-04-11T15:32:10.373Z,44.40
2018-04-11T15:34:37.840Z,43.80
2018-04-11T15:37:06.048Z,44.10
2018-04-11T15:39:33.509Z,44.10
2018-04-11T15:42:00.961Z,44.50
2018-04-11T15:44:28.421Z,44.70
2018-04-11T15:46:56.633Z,44.10
2018-04-11T15:49:24.097Z,44.10
2018-04-11T15:51:51.536Z,44.30
2018-04-11T15:54:19.753Z,44.60
2018-04-11T15:56:47.201Z,44.60
2018-04-11T15:59:15.420Z,45.40
2018-04-11T16:01:42.893Z,45.40
2018-04-11T16:04:10.364Z,46.00
2018-04-11T16:06:37.805Z,46.40
2018-04-11T16:09:05.261Z,46.10
2018-04-11T16:11:33.477Z,46.70
2018-04-11T16:14:00.934Z,46.70
2018-04-11T16:16:28.385Z,47.10
2018-04-11T16:18:56.603Z,47.60
2018-04-11T16:21:24.053Z,47.50
2018-04-11T16:23:52.259Z,48.10
2018-04-11T16:26:19.704Z,48.00
2018-04-11T16:28:48.029Z,47.50
2018-04-11T16:31:15.460Z,47.60
2018-04-11T16:33:43.676Z,47.80
2018-04-11T16:36:11.145Z,47.80
2018-04-11T16:38:38.646Z,47.70
2018-04-11T16:41:06.049Z,46.60
2018-04-11T16:43:34.274Z,46.50
2018-04-11T16:46:01.725Z,46.50
2018-04-11T16:48:29.177Z,46.70
2018-04-11T16:50:57.392Z,46.40
2018-04-11T16:53:24.853Z,46.30
2018-04-11T16:55:52.301Z,46.90
2018-04-11T17:01:11.756Z,48.90
2018-04-11T17:03:39.252Z,48.90
2018-04-11T17:06:06.681Z,49.60
2018-04-11T17:08:34.139Z,49.90
2018-04-11T17:11:01.580Z,50.70
2018-04-11T17:13:29.818Z,50.00
2018-04-11T17:15:57.263Z,50.00
2018-04-11T17:18:24.725Z,50.10
2018-04-11T17:21:04.122Z,50.50
2018-04-11T17:23:43.630Z,50.50
2018-04-11T17:26:23.130Z,50.00
2018-04-11T17:29:02.549Z,50.20
2018-04-11T17:31:30.002Z,50.20
2018-04-11T17:33:57.462Z,50.50
2018-04-11T17:36:24.905Z,50.90
2018-04-11T17:38:52.370Z,50.80
2018-04-11T17:41:19.817Z,50.00
2018-04-11T17:43:47.306Z,49.60
2018-04-11T17:46:14.762Z,50.00
2018-04-11T17:48:42.217Z,50.20
2018-04-11T17:51:09.666Z,50.60
2018-04-11T17:53:37.130Z,51.00
2018-04-11T17:56:04.599Z,51.40
2018-04-11T17:58:32.066Z,51.40
2018-04-11T18:00:59.535Z,51.60
2018-04-11T18:03:26.997Z,51.40
2018-04-11T18:05:54.454Z,52.10
2018-04-11T18:08:22.702Z,52.40
2018-04-11T18:10:50.162Z,52.40
2018-04-11T18:13:17.622Z,52.70
2018-04-11T18:15:45.092Z,52.70
2018-04-11T18:18:12.574Z,52.90
2018-04-11T18:20:40.448Z,52.50
2018-04-11T18:23:07.914Z,52.50
2018-04-11T18:25:35.381Z,52.60
2018-04-11T18:28:02.834Z,53.10
2018-04-11T18:30:30.302Z,53.30
2018-04-11T18:32:57.758Z,53.30
2018-04-11T18:35:25.220Z,53.70
2018-04-11T18:37:52.674Z,53.50
2018-04-11T18:40:20.905Z,53.60
2018-04-11T18:42:48.373Z,53.50
2018-04-11T18:45:15.836Z,53.70
2018-04-11T18:47:43.286Z,54.00
2018-04-11T18:50:10.769Z,54.40
2018-04-11T18:52:38.217Z,54.40
2018-04-11T18:55:05.686Z,54.40
2018-04-11T18:57:33.142Z,54.80
2018-04-11T19:00:01.370Z,54.70
2018-04-11T19:02:28.826Z,54.70
2018-04-11T19:04:56.289Z,54.60
2018-04-11T19:07:23.749Z,54.60
2018-04-11T19:09:51.953Z,54.80
2018-04-11T19:12:19.405Z,54.80
2018-04-11T19:14:46.874Z,55.10
2018-04-11T19:17:14.326Z,55.00
2018-04-11T19:19:42.561Z,55.20
2018-04-11T19:22:10.015Z,55.90
2018-04-11T19:24:37.526Z,55.40
2018-04-11T19:27:04.980Z,55.40
2018-04-11T19:29:32.447Z,55.60
2018-04-11T19:31:59.929Z,55.50
2018-04-11T19:34:27.365Z,55.30
2018-04-11T19:36:54.812Z,55.30
2018-04-11T19:39:22.279Z,55.30
2018-04-11T19:41:51.321Z,55.30
2018-04-11T19:44:18.798Z,55.60
2018-04-11T19:46:46.233Z,55.80
2018-04-11T19:49:13.700Z,55.90
2018-04-11T19:51:41.150Z,55.80
2018-04-11T19:54:09.382Z,56.40
2018-04-11T19:56:36.825Z,56.30
2018-04-11T19:59:04.294Z,56.60
2018-04-11T20:01:31.759Z,57.30
2018-04-11T20:03:59.249Z,57.60
2018-04-11T20:06:26.680Z,57.90
2018-04-11T20:08:54.906Z,59.40
2018-04-11T20:11:22.358Z,59.30
2018-04-11T20:13:49.812Z,59.90
2018-04-11T20:16:18.055Z,60.60
2018-04-11T20:18:45.504Z,60.60
2018-04-11T20:21:12.966Z,60.80
2018-04-11T20:23:40.424Z,61.00
2018-04-11T20:26:07.887Z,61.30
2018-04-11T20:28:35.333Z,61.50
2018-04-11T20:31:03.567Z,61.80
2018-04-11T20:33:31.017Z,61.80
2018-04-11T20:35:58.534Z,61.90
2018-04-11T20:38:25.930Z,62.10
2018-04-11T20:40:54.166Z,62.10
2018-04-11T20:43:21.631Z,62.10
2018-04-11T20:45:49.081Z,62.10
2018-04-11T20:48:16.558Z,62.10
2018-04-11T20:50:44.007Z,62.00
2018-04-11T20:53:11.470Z,62.00
2018-04-11T20:55:38.985Z,61.80
2018-04-11T20:58:06.443Z,61.90
2018-04-11T21:00:33.885Z,61.80
2018-04-11T21:03:01.342Z,62.10
2018-04-11T21:05:29.556Z,62.20
2018-04-11T21:07:57.001Z,62.10
2018-04-11T21:10:24.457Z,62.30
2018-04-11T21:12:52.673Z,63.10
2018-04-11T21:15:20.138Z,62.40
2018-04-11T21:17:47.601Z,62.40
2018-04-11T21:20:15.070Z,62.60
2018-04-11T21:22:42.521Z,62.50
2018-04-11T21:25:10.766Z,62.70
2018-04-11T21:27:38.259Z,62.70
2018-04-11T21:30:05.670Z,62.80
2018-04-11T21:32:33.128Z,62.90
2018-04-11T21:35:00.586Z,63.20
2018-04-11T21:37:28.800Z,63.10
2018-04-11T21:39:56.256Z,63.00
2018-04-11T21:42:23.704Z,63.30
2018-04-11T21:44:51.932Z,63.30
2018-04-11T21:47:19.394Z,63.30
2018-04-11T21:49:46.846Z,63.30
2018-04-11T21:52:14.302Z,63.70
2018-04-11T21:54:42.525Z,63.80
2018-04-11T21:57:09.973Z,63.60
2018-04-11T21:59:37.439Z,63.80
2018-04-11T22:02:04.914Z,63.90
2018-04-11T22:04:32.360Z,63.90
2018-04-11T22:07:00.633Z,64.10
2018-04-11T22:09:28.085Z,64.00
2018-04-11T22:11:55.541Z,64.20
2018-04-11T22:14:23.002Z,64.20
2018-04-11T22:16:50.444Z,64.40
2018-04-11T22:19:17.914Z,64.50
2018-04-11T22:21:45.362Z,64.80
2018-04-11T22:24:13.593Z,64.90
2018-04-11T22:26:41.064Z,64.80
2018-04-11T22:29:08.527Z,64.90
2018-04-11T22:31:35.986Z,65.00
2018-04-11T22:34:03.435Z,64.90
2018-04-11T22:36:30.893Z,65.20
2018-04-11T22:38:59.114Z,65.20
2018-04-11T22:41:26.574Z,65.10
2018-04-11T22:43:54.032Z,65.10
2018-04-11T22:46:21.498Z,65.00
2018-04-11T22:48:48.949Z,65.30
2018-04-11T22:51:17.178Z,65.50
2018-04-11T22:53:44.635Z,65.50
2018-04-11T22:56:12.088Z,65.20
2018-04-11T22:58:39.541Z,65.00
2018-04-11T23:01:07.760Z,65.10
2018-04-11T23:03:35.229Z,65.00
2018-04-11T23:06:02.692Z,65.00
2018-04-11T23:08:30.142Z,65.00
2018-04-11T23:10:58.374Z,65.10
2018-04-11T23:13:25.825Z,65.10
2018-04-11T23:15:53.293Z,65.00
2018-04-11T23:18:20.750Z,65.00
2018-04-11T23:20:48.214Z,64.90
2018-04-11T23:23:16.435Z,65.00
2018-04-11T23:25:43.898Z,65.00
2018-04-11T23:28:11.351Z,65.00
2018-04-11T23:30:38.823Z,65.10
2018-04-11T23:33:06.294Z,65.10
2018-04-11T23:35:33.766Z,65.40
2018-04-11T23:38:01.217Z,65.50
2018-04-11T23:40:28.682Z,65.60
2018-04-11T23:42:56.898Z,65.60
2018-04-11T23:45:24.356Z,65.40
2018-04-11T23:47:51.819Z,65.80
2018-04-11T23:50:19.294Z,66.00
2018-04-11T23:52:46.758Z,66.20
2018-04-11T23:55:14.223Z,66.10
2018-04-11T23:57:41.679Z,66.20
